NY19 weather

Walls Airport
Elbridge, New York, United States

Public forecast

Using degrees Fahrenheit for public forecast. Weather courtesy of forecast.io.

Closest aviation weather report (METAR) to Walls Airport

Closest report is Syracuse Hancock International Airport, 16.1 nm (29.8 km) ENE. Retrieved 2019/10/19 08:54 UTC (2 hours ago):

KSYR 190854Z 25004KT 10SM FEW040 SCT150 04/03 A3005 RMK AO2 SLP175 T00390033 53000

Closest aviation forecast (TAF) to Walls Airport

Closest forecast is Syracuse Hancock International Airport, 16.1 nm (29.8 km) ENE. Retrieved 2019/10/19 06:22 UTC (4 hours ago):

TAF KSYR 190520Z 1906/2006 25003KT P6SM OVC040 FM190900 13003KT P6SM SCT250